sensor_id;sensor_type;location;lat;lon;timestamp;P1;durP1;ratioP1;P2;durP2;ratioP2
21162;SDS011;10739;52.198;20.908;2024-03-23T00:53:38;50.05;;;25.58;;
21162;SDS011;10739;52.198;20.908;2024-03-23T00:56:05;46.10;;;26.85;;
21162;SDS011;10739;52.198;20.908;2024-03-23T00:58:31;44.45;;;26.00;;
21162;SDS011;10739;52.198;20.908;2024-03-23T01:00:57;52.15;;;26.42;;
21162;SDS011;10739;52.198;20.908;2024-03-23T01:03:23;48.38;;;26.67;;
21162;SDS011;10739;52.198;20.908;2024-03-23T01:05:49;46.45;;;25.83;;
21162;SDS011;10739;52.198;20.908;2024-03-23T01:08:16;46.38;;;27.42;;
21162;SDS011;10739;52.198;20.908;2024-03-23T01:10:42;52.00;;;27.98;;
21162;SDS011;10739;52.198;20.908;2024-03-23T01:13:08;56.75;;;28.05;;
21162;SDS011;10739;52.198;20.908;2024-03-23T01:15:35;49.65;;;27.55;;
21162;SDS011;10739;52.198;20.908;2024-03-23T01:18:01;52.33;;;27.80;;
21162;SDS011;10739;52.198;20.908;2024-03-23T01:20:27;51.17;;;28.95;;
21162;SDS011;10739;52.198;20.908;2024-03-23T01:22:53;52.63;;;29.05;;
21162;SDS011;10739;52.198;20.908;2024-03-23T01:25:19;50.63;;;28.67;;
21162;SDS011;10739;52.198;20.908;2024-03-23T01:27:45;53.45;;;28.85;;
21162;SDS011;10739;52.198;20.908;2024-03-23T01:30:11;56.45;;;30.23;;
21162;SDS011;10739;52.198;20.908;2024-03-23T01:32:39;55.78;;;30.25;;
21162;SDS011;10739;52.198;20.908;2024-03-23T01:35:05;54.35;;;30.38;;
21162;SDS011;10739;52.198;20.908;2024-03-23T01:37:31;57.55;;;30.27;;
21162;SDS011;10739;52.198;20.908;2024-03-23T01:39:57;55.75;;;31.17;;
21162;SDS011;10739;52.198;20.908;2024-03-23T01:42:23;57.08;;;31.20;;
21162;SDS011;10739;52.198;20.908;2024-03-23T01:44:49;59.60;;;30.60;;
21162;SDS011;10739;52.198;20.908;2024-03-23T01:47:16;55.10;;;31.85;;
21162;SDS011;10739;52.198;20.908;2024-03-23T01:49:42;53.45;;;29.95;;
21162;SDS011;10739;52.198;20.908;2024-03-23T01:52:08;54.25;;;30.40;;
21162;SDS011;10739;52.198;20.908;2024-03-23T01:54:35;59.08;;;29.77;;
21162;SDS011;10739;52.198;20.908;2024-03-23T01:57:02;58.40;;;31.83;;
21162;SDS011;10739;52.198;20.908;2024-03-23T01:59:28;65.68;;;32.75;;
21162;SDS011;10739;52.198;20.908;2024-03-23T02:01:55;61.17;;;33.20;;
21162;SDS011;10739;52.198;20.908;2024-03-23T02:04:21;62.50;;;32.50;;
21162;SDS011;10739;52.198;20.908;2024-03-23T02:06:47;55.65;;;31.85;;
21162;SDS011;10739;52.198;20.908;2024-03-23T02:09:14;67.45;;;34.13;;
21162;SDS011;10739;52.198;20.908;2024-03-23T02:11:41;65.63;;;32.67;;
21162;SDS011;10739;52.198;20.908;2024-03-23T02:14:07;61.45;;;32.97;;
21162;SDS011;10739;52.198;20.908;2024-03-23T02:16:33;63.15;;;33.67;;
21162;SDS011;10739;52.198;20.908;2024-03-23T02:19:00;63.65;;;34.17;;
21162;SDS011;10739;52.198;20.908;2024-03-23T02:21:26;69.82;;;36.47;;
21162;SDS011;10739;52.198;20.908;2024-03-23T02:23:52;69.32;;;37.10;;
21162;SDS011;10739;52.198;20.908;2024-03-23T02:26:19;71.53;;;36.55;;
21162;SDS011;10739;52.198;20.908;2024-03-23T02:28:45;72.05;;;39.22;;
21162;SDS011;10739;52.198;20.908;2024-03-23T02:31:11;78.80;;;39.67;;
21162;SDS011;10739;52.198;20.908;2024-03-23T02:33:38;74.53;;;39.08;;
21162;SDS011;10739;52.198;20.908;2024-03-23T02:36:04;73.57;;;38.35;;
21162;SDS011;10739;52.198;20.908;2024-03-23T02:38:30;78.25;;;42.22;;
21162;SDS011;10739;52.198;20.908;2024-03-23T02:41:01;81.82;;;42.88;;
21162;SDS011;10739;52.198;20.908;2024-03-23T02:43:31;88.13;;;43.00;;
21162;SDS011;10739;52.198;20.908;2024-03-23T02:45:57;82.53;;;43.58;;
21162;SDS011;10739;52.198;20.908;2024-03-23T02:48:23;85.40;;;42.53;;
21162;SDS011;10739;52.198;20.908;2024-03-23T02:50:49;88.13;;;45.67;;
21162;SDS011;10739;52.198;20.908;2024-03-23T02:53:16;85.25;;;44.65;;
21162;SDS011;10739;52.198;20.908;2024-03-23T02:55:42;97.75;;;47.13;;
21162;SDS011;10739;52.198;20.908;2024-03-23T02:58:09;92.63;;;47.20;;
21162;SDS011;10739;52.198;20.908;2024-03-23T03:00:35;87.95;;;46.17;;
21162;SDS011;10739;52.198;20.908;2024-03-23T03:03:01;82.10;;;42.00;;
21162;SDS011;10739;52.198;20.908;2024-03-23T03:05:28;88.97;;;42.83;;
21162;SDS011;10739;52.198;20.908;2024-03-23T03:07:54;73.82;;;38.75;;
21162;SDS011;10739;52.198;20.908;2024-03-23T03:10:20;75.15;;;37.75;;
21162;SDS011;10739;52.198;20.908;2024-03-23T03:12:46;76.75;;;38.35;;
21162;SDS011;10739;52.198;20.908;2024-03-23T03:15:12;74.15;;;38.28;;
21162;SDS011;10739;52.198;20.908;2024-03-23T03:17:38;77.10;;;38.90;;
21162;SDS011;10739;52.198;20.908;2024-03-23T03:20:04;82.57;;;39.35;;
21162;SDS011;10739;52.198;20.908;2024-03-23T03:22:31;74.53;;;38.75;;
21162;SDS011;10739;52.198;20.908;2024-03-23T03:24:57;75.05;;;39.15;;
21162;SDS011;10739;52.198;20.908;2024-03-23T03:27:25;81.38;;;39.90;;
21162;SDS011;10739;52.198;20.908;2024-03-23T03:29:51;82.53;;;39.83;;
21162;SDS011;10739;52.198;20.908;2024-03-23T03:32:17;75.60;;;38.58;;
21162;SDS011;10739;52.198;20.908;2024-03-23T03:34:43;73.93;;;38.40;;
21162;SDS011;10739;52.198;20.908;2024-03-23T03:37:09;77.47;;;38.95;;
21162;SDS011;10739;52.198;20.908;2024-03-23T03:39:35;85.38;;;39.67;;
21162;SDS011;10739;52.198;20.908;2024-03-23T03:42:02;80.88;;;38.67;;
21162;SDS011;10739;52.198;20.908;2024-03-23T03:44:31;74.47;;;37.05;;
21162;SDS011;10739;52.198;20.908;2024-03-23T03:46:57;81.55;;;40.03;;
21162;SDS011;10739;52.198;20.908;2024-03-23T03:49:23;80.07;;;39.10;;
21162;SDS011;10739;52.198;20.908;2024-03-23T03:51:50;88.80;;;40.10;;
21162;SDS011;10739;52.198;20.908;2024-03-23T03:54:16;87.25;;;41.25;;
21162;SDS011;10739;52.198;20.908;2024-03-23T03:56:42;81.28;;;40.90;;
21162;SDS011;10739;52.198;20.908;2024-03-23T03:59:08;85.80;;;41.45;;
21162;SDS011;10739;52.198;20.908;2024-03-23T04:01:34;81.85;;;40.85;;
21162;SDS011;10739;52.198;20.908;2024-03-23T04:04:01;80.95;;;41.53;;
21162;SDS011;10739;52.198;20.908;2024-03-23T04:06:27;83.97;;;39.72;;
21162;SDS011;10739;52.198;20.908;2024-03-23T04:08:53;78.32;;;38.42;;
21162;SDS011;10739;52.198;20.908;2024-03-23T04:11:20;78.15;;;38.75;;
21162;SDS011;10739;52.198;20.908;2024-03-23T04:13:46;82.90;;;39.60;;
21162;SDS011;10739;52.198;20.908;2024-03-23T04:16:13;80.10;;;40.45;;
21162;SDS011;10739;52.198;20.908;2024-03-23T04:18:50;74.00;;;38.42;;
21162;SDS011;10739;52.198;20.908;2024-03-23T04:21:16;75.60;;;40.13;;
21162;SDS011;10739;52.198;20.908;2024-03-23T04:23:42;71.78;;;38.72;;
21162;SDS011;10739;52.198;20.908;2024-03-23T04:26:08;79.68;;;39.45;;
21162;SDS011;10739;52.198;20.908;2024-03-23T04:28:34;75.63;;;38.17;;
21162;SDS011;10739;52.198;20.908;2024-03-23T04:31:04;73.38;;;38.30;;
21162;SDS011;10739;52.198;20.908;2024-03-23T04:33:31;79.57;;;40.13;;
21162;SDS011;10739;52.198;20.908;2024-03-23T04:35:57;81.45;;;40.78;;
21162;SDS011;10739;52.198;20.908;2024-03-23T04:38:23;79.30;;;41.83;;
21162;SDS011;10739;52.198;20.908;2024-03-23T04:40:58;82.55;;;41.80;;
21162;SDS011;10739;52.198;20.908;2024-03-23T04:43:25;85.35;;;43.08;;
21162;SDS011;10739;52.198;20.908;2024-03-23T04:45:52;84.70;;;41.85;;
21162;SDS011;10739;52.198;20.908;2024-03-23T04:48:20;80.70;;;41.83;;
21162;SDS011;10739;52.198;20.908;2024-03-23T04:50:54;85.38;;;42.72;;
21162;SDS011;10739;52.198;20.908;2024-03-23T04:53:24;89.32;;;42.60;;
21162;SDS011;10739;52.198;20.908;2024-03-23T04:55:56;82.45;;;41.10;;
21162;SDS011;10739;52.198;20.908;2024-03-23T04:58:24;90.47;;;43.13;;
21162;SDS011;10739;52.198;20.908;2024-03-23T05:00:54;85.13;;;42.90;;
21162;SDS011;10739;52.198;20.908;2024-03-23T05:03:21;84.50;;;42.28;;
21162;SDS011;10739;52.198;20.908;2024-03-23T05:05:49;80.72;;;42.05;;
21162;SDS011;10739;52.198;20.908;2024-03-23T05:08:15;93.15;;;42.92;;
21162;SDS011;10739;52.198;20.908;2024-03-23T05:10:42;89.47;;;44.25;;
21162;SDS011;10739;52.198;20.908;2024-03-23T05:13:09;88.78;;;44.67;;
21162;SDS011;10739;52.198;20.908;2024-03-23T05:15:35;81.50;;;42.10;;
21162;SDS011;10739;52.198;20.908;2024-03-23T05:18:01;86.18;;;44.53;;
21162;SDS011;10739;52.198;20.908;2024-03-23T05:20:28;92.13;;;46.17;;
21162;SDS011;10739;52.198;20.908;2024-03-23T05:22:54;85.00;;;42.42;;
21162;SDS011;10739;52.198;20.908;2024-03-23T05:25:20;87.00;;;43.85;;
21162;SDS011;10739;52.198;20.908;2024-03-23T05:27:46;83.65;;;43.58;;
21162;SDS011;10739;52.198;20.908;2024-03-23T05:30:13;84.35;;;43.83;;
21162;SDS011;10739;52.198;20.908;2024-03-23T05:32:39;90.72;;;45.75;;
21162;SDS011;10739;52.198;20.908;2024-03-23T05:35:07;93.32;;;44.03;;
21162;SDS011;10739;52.198;20.908;2024-03-23T05:37:35;87.85;;;46.35;;
21162;SDS011;10739;52.198;20.908;2024-03-23T05:40:02;91.05;;;46.17;;
21162;SDS011;10739;52.198;20.908;2024-03-23T05:42:29;92.78;;;44.45;;
21162;SDS011;10739;52.198;20.908;2024-03-23T05:44:55;90.80;;;45.08;;
21162;SDS011;10739;52.198;20.908;2024-03-23T05:47:22;89.47;;;43.22;;
21162;SDS011;10739;52.198;20.908;2024-03-23T05:49:48;88.43;;;44.08;;
21162;SDS011;10739;52.198;20.908;2024-03-23T05:52:14;90.32;;;44.70;;
21162;SDS011;10739;52.198;20.908;2024-03-23T05:54:40;89.43;;;45.38;;
21162;SDS011;10739;52.198;20.908;2024-03-23T05:57:08;91.57;;;45.30;;
21162;SDS011;10739;52.198;20.908;2024-03-23T05:59:35;92.57;;;45.88;;
21162;SDS011;10739;52.198;20.908;2024-03-23T06:02:01;91.68;;;46.20;;
21162;SDS011;10739;52.198;20.908;2024-03-23T06:04:27;85.93;;;43.80;;
21162;SDS011;10739;52.198;20.908;2024-03-23T06:06:53;82.22;;;44.25;;
21162;SDS011;10739;52.198;20.908;2024-03-23T06:09:19;85.30;;;45.28;;
21162;SDS011;10739;52.198;20.908;2024-03-23T06:11:45;85.38;;;45.28;;
21162;SDS011;10739;52.198;20.908;2024-03-23T06:14:12;86.35;;;42.90;;
21162;SDS011;10739;52.198;20.908;2024-03-23T06:16:38;87.47;;;44.58;;
21162;SDS011;10739;52.198;20.908;2024-03-23T06:19:04;82.47;;;43.90;;
21162;SDS011;10739;52.198;20.908;2024-03-23T06:21:32;83.88;;;43.20;;
21162;SDS011;10739;52.198;20.908;2024-03-23T06:23:58;76.80;;;43.17;;
21162;SDS011;10739;52.198;20.908;2024-03-23T06:26:25;83.70;;;43.40;;
21162;SDS011;10739;52.198;20.908;2024-03-23T06:28:51;84.72;;;43.40;;
21162;SDS011;10739;52.198;20.908;2024-03-23T06:31:17;79.22;;;41.95;;
21162;SDS011;10739;52.198;20.908;2024-03-23T06:33:43;75.40;;;40.08;;
21162;SDS011;10739;52.198;20.908;2024-03-23T06:36:10;83.18;;;40.78;;
21162;SDS011;10739;52.198;20.908;2024-03-23T06:38:37;77.45;;;40.55;;
21162;SDS011;10739;52.198;20.908;2024-03-23T06:41:03;74.00;;;41.80;;
21162;SDS011;10739;52.198;20.908;2024-03-23T06:43:34;78.00;;;39.58;;
21162;SDS011;10739;52.198;20.908;2024-03-23T06:46:01;71.25;;;39.72;;
21162;SDS011;10739;52.198;20.908;2024-03-23T06:48:29;70.35;;;40.25;;
21162;SDS011;10739;52.198;20.908;2024-03-23T06:50:56;76.32;;;39.95;;
21162;SDS011;10739;52.198;20.908;2024-03-23T06:53:23;72.57;;;40.35;;
21162;SDS011;10739;52.198;20.908;2024-03-23T06:55:52;71.82;;;39.88;;
21162;SDS011;10739;52.198;20.908;2024-03-23T06:58:20;74.85;;;40.15;;
21162;SDS011;10739;52.198;20.908;2024-03-23T07:00:46;75.30;;;38.58;;
21162;SDS011;10739;52.198;20.908;2024-03-23T07:03:13;69.28;;;37.63;;
21162;SDS011;10739;52.198;20.908;2024-03-23T07:05:40;70.18;;;37.95;;
21162;SDS011;10739;52.198;20.908;2024-03-23T07:08:06;69.85;;;38.90;;
21162;SDS011;10739;52.198;20.908;2024-03-23T07:10:33;70.32;;;38.28;;
21162;SDS011;10739;52.198;20.908;2024-03-23T07:12:59;66.93;;;37.50;;
21162;SDS011;10739;52.198;20.908;2024-03-23T07:15:25;71.13;;;38.15;;
21162;SDS011;10739;52.198;20.908;2024-03-23T07:17:51;72.53;;;39.42;;
21162;SDS011;10739;52.198;20.908;2024-03-23T07:20:18;70.85;;;38.38;;
21162;SDS011;10739;52.198;20.908;2024-03-23T07:22:45;75.28;;;37.50;;
21162;SDS011;10739;52.198;20.908;2024-03-23T07:25:12;82.47;;;39.83;;
21162;SDS011;10739;52.198;20.908;2024-03-23T07:27:39;73.72;;;38.83;;
21162;SDS011;10739;52.198;20.908;2024-03-23T07:30:06;76.57;;;38.42;;
21162;SDS011;10739;52.198;20.908;2024-03-23T07:32:34;71.28;;;37.63;;
21162;SDS011;10739;52.198;20.908;2024-03-23T07:35:01;67.72;;;37.17;;
21162;SDS011;10739;52.198;20.908;2024-03-23T07:37:29;73.13;;;38.15;;
21162;SDS011;10739;52.198;20.908;2024-03-23T07:39:55;70.70;;;36.30;;
21162;SDS011;10739;52.198;20.908;2024-03-23T07:42:23;69.25;;;36.83;;
21162;SDS011;10739;52.198;20.908;2024-03-23T07:44:51;76.53;;;37.47;;
21162;SDS011;10739;52.198;20.908;2024-03-23T07:47:17;78.25;;;38.00;;
21162;SDS011;10739;52.198;20.908;2024-03-23T07:49:43;78.32;;;38.35;;
21162;SDS011;10739;52.198;20.908;2024-03-23T07:52:09;82.18;;;40.00;;
21162;SDS011;10739;52.198;20.908;2024-03-23T07:54:35;81.38;;;38.10;;
21162;SDS011;10739;52.198;20.908;2024-03-23T07:57:01;80.50;;;39.65;;
21162;SDS011;10739;52.198;20.908;2024-03-23T07:59:28;68.97;;;37.58;;
21162;SDS011;10739;52.198;20.908;2024-03-23T08:01:57;72.97;;;37.20;;
21162;SDS011;10739;52.198;20.908;2024-03-23T08:04:23;66.32;;;36.50;;
21162;SDS011;10739;52.198;20.908;2024-03-23T08:06:49;68.07;;;36.17;;
21162;SDS011;10739;52.198;20.908;2024-03-23T08:09:15;68.32;;;35.03;;
21162;SDS011;10739;52.198;20.908;2024-03-23T08:11:42;67.53;;;36.03;;
21162;SDS011;10739;52.198;20.908;2024-03-23T08:14:11;68.03;;;36.28;;
21162;SDS011;10739;52.198;20.908;2024-03-23T08:16:37;68.22;;;36.15;;
21162;SDS011;10739;52.198;20.908;2024-03-23T08:19:03;71.88;;;35.55;;
21162;SDS011;10739;52.198;20.908;2024-03-23T08:21:30;58.22;;;34.13;;
21162;SDS011;10739;52.198;20.908;2024-03-23T08:23:56;63.25;;;35.22;;
21162;SDS011;10739;52.198;20.908;2024-03-23T08:26:23;64.95;;;34.35;;
21162;SDS011;10739;52.198;20.908;2024-03-23T08:28:49;62.17;;;34.22;;
21162;SDS011;10739;52.198;20.908;2024-03-23T08:31:15;57.83;;;33.20;;
21162;SDS011;10739;52.198;20.908;2024-03-23T08:33:41;60.00;;;33.42;;
21162;SDS011;10739;52.198;20.908;2024-03-23T08:36:10;62.53;;;34.42;;
21162;SDS011;10739;52.198;20.908;2024-03-23T08:38:42;65.63;;;33.72;;
21162;SDS011;10739;52.198;20.908;2024-03-23T08:41:09;48.33;;;30.30;;
21162;SDS011;10739;52.198;20.908;2024-03-23T08:43:40;53.78;;;30.58;;
21162;SDS011;10739;52.198;20.908;2024-03-23T08:46:11;47.88;;;28.40;;
21162;SDS011;10739;52.198;20.908;2024-03-23T08:48:40;51.67;;;29.37;;
21162;SDS011;10739;52.198;20.908;2024-03-23T08:51:11;42.75;;;25.60;;
21162;SDS011;10739;52.198;20.908;2024-03-23T08:53:39;46.13;;;24.90;;
21162;SDS011;10739;52.198;20.908;2024-03-23T08:56:06;40.58;;;24.00;;
21162;SDS011;10739;52.198;20.908;2024-03-23T08:58:34;33.33;;;21.25;;
21162;SDS011;10739;52.198;20.908;2024-03-23T09:01:11;35.58;;;22.17;;
21162;SDS011;10739;52.198;20.908;2024-03-23T09:03:39;41.97;;;21.67;;
21162;SDS011;10739;52.198;20.908;2024-03-23T09:06:09;33.15;;;20.65;;
21162;SDS011;10739;52.198;20.908;2024-03-23T09:08:37;35.55;;;21.65;;
21162;SDS011;10739;52.198;20.908;2024-03-23T09:11:04;28.02;;;19.27;;
21162;SDS011;10739;52.198;20.908;2024-03-23T09:13:35;29.70;;;20.65;;
21162;SDS011;10739;52.198;20.908;2024-03-23T09:16:02;26.70;;;18.98;;
21162;SDS011;10739;52.198;20.908;2024-03-23T09:18:34;27.52;;;18.85;;
21162;SDS011;10739;52.198;20.908;2024-03-23T09:21:02;28.50;;;17.52;;
21162;SDS011;10739;52.198;20.908;2024-03-23T09:23:29;24.90;;;15.98;;
21162;SDS011;10739;52.198;20.908;2024-03-23T09:25:55;24.33;;;16.55;;
21162;SDS011;10739;52.198;20.908;2024-03-23T09:28:21;24.70;;;15.90;;
21162;SDS011;10739;52.198;20.908;2024-03-23T09:30:48;23.50;;;15.88;;
21162;SDS011;10739;52.198;20.908;2024-03-23T09:33:19;22.60;;;13.90;;
21162;SDS011;10739;52.198;20.908;2024-03-23T09:35:45;22.02;;;14.27;;
21162;SDS011;10739;52.198;20.908;2024-03-23T09:38:12;24.25;;;14.45;;
21162;SDS011;10739;52.198;20.908;2024-03-23T09:40:41;22.85;;;13.75;;
21162;SDS011;10739;52.198;20.908;2024-03-23T09:43:09;19.73;;;13.20;;
21162;SDS011;10739;52.198;20.908;2024-03-23T09:45:41;20.20;;;14.07;;
21162;SDS011;10739;52.198;20.908;2024-03-23T09:48:10;19.92;;;13.05;;
21162;SDS011;10739;52.198;20.908;2024-03-23T09:50:37;19.35;;;13.32;;
21162;SDS011;10739;52.198;20.908;2024-03-23T09:53:05;18.35;;;12.90;;
21162;SDS011;10739;52.198;20.908;2024-03-23T09:55:33;20.35;;;13.02;;
21162;SDS011;10739;52.198;20.908;2024-03-23T09:58:03;18.77;;;12.75;;
21162;SDS011;10739;52.198;20.908;2024-03-23T10:00:30;17.73;;;12.35;;
21162;SDS011;10739;52.198;20.908;2024-03-23T10:02:59;18.02;;;11.18;;
21162;SDS011;10739;52.198;20.908;2024-03-23T10:05:30;15.40;;;11.27;;
21162;SDS011;10739;52.198;20.908;2024-03-23T10:08:20;20.10;;;12.20;;
21162;SDS011;10739;52.198;20.908;2024-03-23T10:10:45;16.58;;;11.55;;
21162;SDS011;10739;52.198;20.908;2024-03-23T10:13:25;15.93;;;11.27;;
21162;SDS011;10739;52.198;20.908;2024-03-23T10:15:56;14.18;;;11.10;;
21162;SDS011;10739;52.198;20.908;2024-03-23T10:18:24;14.48;;;11.07;;
21162;SDS011;10739;52.198;20.908;2024-03-23T10:21:14;16.13;;;10.55;;
21162;SDS011;10739;52.198;20.908;2024-03-23T10:23:40;14.23;;;9.75;;
21162;SDS011;10739;52.198;20.908;2024-03-23T10:26:21;13.90;;;10.90;;
21162;SDS011;10739;52.198;20.908;2024-03-23T10:28:56;12.60;;;10.27;;
21162;SDS011;10739;52.198;20.908;2024-03-23T10:31:27;13.50;;;9.98;;
21162;SDS011;10739;52.198;20.908;2024-03-23T10:33:56;14.48;;;10.15;;
21162;SDS011;10739;52.198;20.908;2024-03-23T10:36:23;13.85;;;10.15;;
21162;SDS011;10739;52.198;20.908;2024-03-23T10:38:51;15.52;;;9.30;;
21162;SDS011;10739;52.198;20.908;2024-03-23T10:41:36;14.20;;;10.13;;
21162;SDS011;10739;52.198;20.908;2024-03-23T10:44:06;15.00;;;10.23;;
21162;SDS011;10739;52.198;20.908;2024-03-23T10:46:33;13.25;;;10.10;;
21162;SDS011;10739;52.198;20.908;2024-03-23T10:48:59;13.93;;;9.40;;
21162;SDS011;10739;52.198;20.908;2024-03-23T10:51:25;14.50;;;10.60;;
21162;SDS011;10739;52.198;20.908;2024-03-23T10:53:51;15.70;;;10.18;;
21162;SDS011;10739;52.198;20.908;2024-03-23T10:56:21;14.82;;;10.45;;
21162;SDS011;10739;52.198;20.908;2024-03-23T10:58:48;18.15;;;9.88;;
21162;SDS011;10739;52.198;20.908;2024-03-23T11:01:15;13.88;;;9.52;;
21162;SDS011;10739;52.198;20.908;2024-03-23T11:03:45;14.13;;;9.75;;
21162;SDS011;10739;52.198;20.908;2024-03-23T11:06:34;16.38;;;8.52;;
21162;SDS011;10739;52.198;20.908;2024-03-23T11:09:03;12.93;;;9.00;;
21162;SDS011;10739;52.198;20.908;2024-03-23T11:11:49;13.55;;;8.63;;
21162;SDS011;10739;52.198;20.908;2024-03-23T11:14:21;12.68;;;8.90;;
21162;SDS011;10739;52.198;20.908;2024-03-23T11:17:07;13.68;;;8.52;;
21162;SDS011;10739;52.198;20.908;2024-03-23T11:19:36;11.45;;;8.40;;
21162;SDS011;10739;52.198;20.908;2024-03-23T11:22:03;13.82;;;9.18;;
21162;SDS011;10739;52.198;20.908;2024-03-23T11:24:31;9.18;;;7.50;;
21162;SDS011;10739;52.198;20.908;2024-03-23T11:26:57;9.77;;;7.90;;
21162;SDS011;10739;52.198;20.908;2024-03-23T11:29:26;12.82;;;8.00;;
21162;SDS011;10739;52.198;20.908;2024-03-23T11:31:55;11.45;;;8.38;;
21162;SDS011;10739;52.198;20.908;2024-03-23T11:34:21;12.68;;;8.13;;
21162;SDS011;10739;52.198;20.908;2024-03-23T11:36:48;15.35;;;8.98;;
21162;SDS011;10739;52.198;20.908;2024-03-23T11:39:17;9.48;;;6.40;;
21162;SDS011;10739;52.198;20.908;2024-03-23T11:44:19;14.85;;;7.22;;
21162;SDS011;10739;52.198;20.908;2024-03-23T11:46:51;10.05;;;7.32;;
21162;SDS011;10739;52.198;20.908;2024-03-23T11:49:25;12.10;;;6.72;;
21162;SDS011;10739;52.198;20.908;2024-03-23T11:51:54;8.13;;;6.47;;
21162;SDS011;10739;52.198;20.908;2024-03-23T11:54:25;9.30;;;6.40;;
21162;SDS011;10739;52.198;20.908;2024-03-23T11:57:02;10.07;;;6.60;;
21162;SDS011;10739;52.198;20.908;2024-03-23T12:02:09;9.55;;;7.22;;
21162;SDS011;10739;52.198;20.908;2024-03-23T12:04:39;10.38;;;6.82;;
21162;SDS011;10739;52.198;20.908;2024-03-23T12:07:16;10.48;;;6.63;;
21162;SDS011;10739;52.198;20.908;2024-03-23T12:09:44;9.73;;;6.80;;
21162;SDS011;10739;52.198;20.908;2024-03-23T12:12:15;8.82;;;6.43;;
21162;SDS011;10739;52.198;20.908;2024-03-23T12:14:44;11.32;;;7.30;;
21162;SDS011;10739;52.198;20.908;2024-03-23T12:19:53;9.90;;;6.82;;
21162;SDS011;10739;52.198;20.908;2024-03-23T12:22:22;7.75;;;6.68;;
21162;SDS011;10739;52.198;20.908;2024-03-23T12:24:49;10.68;;;7.40;;
21162;SDS011;10739;52.198;20.908;2024-03-23T12:27:16;8.02;;;6.78;;
21162;SDS011;10739;52.198;20.908;2024-03-23T12:29:42;9.55;;;7.03;;
21162;SDS011;10739;52.198;20.908;2024-03-23T12:32:11;11.32;;;6.88;;
21162;SDS011;10739;52.198;20.908;2024-03-23T12:34:39;10.38;;;7.82;;
21162;SDS011;10739;52.198;20.908;2024-03-23T12:37:06;11.93;;;6.53;;
21162;SDS011;10739;52.198;20.908;2024-03-23T12:39:33;12.30;;;7.85;;
21162;SDS011;10739;52.198;20.908;2024-03-23T12:42:00;12.27;;;7.72;;
21162;SDS011;10739;52.198;20.908;2024-03-23T12:44:30;10.82;;;7.53;;
21162;SDS011;10739;52.198;20.908;2024-03-23T12:46:57;13.77;;;7.97;;
21162;SDS011;10739;52.198;20.908;2024-03-23T12:49:23;9.88;;;7.38;;
21162;SDS011;10739;52.198;20.908;2024-03-23T12:51:55;10.18;;;7.93;;
21162;SDS011;10739;52.198;20.908;2024-03-23T12:54:22;12.63;;;7.90;;
21162;SDS011;10739;52.198;20.908;2024-03-23T12:56:50;13.38;;;7.68;;
21162;SDS011;10739;52.198;20.908;2024-03-23T12:59:16;10.70;;;7.78;;
21162;SDS011;10739;52.198;20.908;2024-03-23T13:01:43;14.93;;;7.80;;
21162;SDS011;10739;52.198;20.908;2024-03-23T13:04:11;10.07;;;7.35;;
21162;SDS011;10739;52.198;20.908;2024-03-23T13:06:37;10.98;;;7.45;;
21162;SDS011;10739;52.198;20.908;2024-03-23T13:09:04;11.35;;;7.68;;
21162;SDS011;10739;52.198;20.908;2024-03-23T13:11:30;11.02;;;7.20;;
21162;SDS011;10739;52.198;20.908;2024-03-23T13:13:56;9.52;;;7.32;;
21162;SDS011;10739;52.198;20.908;2024-03-23T13:16:23;8.80;;;7.18;;
21162;SDS011;10739;52.198;20.908;2024-03-23T13:18:49;11.70;;;7.22;;
21162;SDS011;10739;52.198;20.908;2024-03-23T13:21:16;13.43;;;6.95;;
21162;SDS011;10739;52.198;20.908;2024-03-23T13:23:42;11.52;;;6.82;;
21162;SDS011;10739;52.198;20.908;2024-03-23T13:26:13;9.88;;;7.03;;
21162;SDS011;10739;52.198;20.908;2024-03-23T13:28:39;10.18;;;6.70;;
21162;SDS011;10739;52.198;20.908;2024-03-23T13:31:10;10.88;;;6.55;;
21162;SDS011;10739;52.198;20.908;2024-03-23T13:33:44;7.47;;;6.32;;
21162;SDS011;10739;52.198;20.908;2024-03-23T13:36:11;8.07;;;6.13;;
21162;SDS011;10739;52.198;20.908;2024-03-23T13:38:43;8.82;;;6.30;;
21162;SDS011;10739;52.198;20.908;2024-03-23T13:41:09;14.02;;;6.82;;
21162;SDS011;10739;52.198;20.908;2024-03-23T13:43:39;12.73;;;6.75;;
21162;SDS011;10739;52.198;20.908;2024-03-23T13:46:09;10.10;;;6.60;;
21162;SDS011;10739;52.198;20.908;2024-03-23T13:48:35;9.35;;;6.65;;
21162;SDS011;10739;52.198;20.908;2024-03-23T13:51:02;13.23;;;7.47;;
21162;SDS011;10739;52.198;20.908;2024-03-23T13:53:30;13.23;;;8.10;;
21162;SDS011;10739;52.198;20.908;2024-03-23T13:55:57;10.32;;;7.07;;
21162;SDS011;10739;52.198;20.908;2024-03-23T13:58:23;10.77;;;6.55;;
21162;SDS011;10739;52.198;20.908;2024-03-23T14:00:52;12.73;;;6.38;;
21162;SDS011;10739;52.198;20.908;2024-03-23T14:03:21;10.90;;;6.63;;
21162;SDS011;10739;52.198;20.908;2024-03-23T14:05:48;10.02;;;6.78;;
21162;SDS011;10739;52.198;20.908;2024-03-23T14:08:14;11.40;;;6.20;;
21162;SDS011;10739;52.198;20.908;2024-03-23T14:10:40;11.35;;;6.53;;
21162;SDS011;10739;52.198;20.908;2024-03-23T14:13:07;11.10;;;6.50;;
21162;SDS011;10739;52.198;20.908;2024-03-23T14:15:33;8.95;;;6.15;;
21162;SDS011;10739;52.198;20.908;2024-03-23T14:18:02;9.32;;;6.15;;
21162;SDS011;10739;52.198;20.908;2024-03-23T14:20:29;10.38;;;6.05;;
21162;SDS011;10739;52.198;20.908;2024-03-23T14:22:55;9.32;;;6.03;;
21162;SDS011;10739;52.198;20.908;2024-03-23T14:25:21;10.90;;;6.50;;
21162;SDS011;10739;52.198;20.908;2024-03-23T14:27:52;9.85;;;6.63;;
21162;SDS011;10739;52.198;20.908;2024-03-23T14:30:18;11.90;;;7.10;;
21162;SDS011;10739;52.198;20.908;2024-03-23T14:32:45;9.93;;;7.00;;
21162;SDS011;10739;52.198;20.908;2024-03-23T14:35:11;10.77;;;6.82;;
21162;SDS011;10739;52.198;20.908;2024-03-23T14:37:37;10.63;;;7.18;;
21162;SDS011;10739;52.198;20.908;2024-03-23T14:40:04;11.68;;;6.72;;
21162;SDS011;10739;52.198;20.908;2024-03-23T14:42:32;12.63;;;7.40;;
21162;SDS011;10739;52.198;20.908;2024-03-23T14:44:58;11.18;;;7.32;;
21162;SDS011;10739;52.198;20.908;2024-03-23T14:47:24;12.30;;;7.30;;
21162;SDS011;10739;52.198;20.908;2024-03-23T14:49:50;10.63;;;7.22;;
21162;SDS011;10739;52.198;20.908;2024-03-23T14:52:17;11.00;;;7.25;;
21162;SDS011;10739;52.198;20.908;2024-03-23T14:54:44;14.98;;;7.82;;
21162;SDS011;10739;52.198;20.908;2024-03-23T14:57:11;14.68;;;8.00;;
21162;SDS011;10739;52.198;20.908;2024-03-23T14:59:41;14.32;;;9.23;;
21162;SDS011;10739;52.198;20.908;2024-03-23T15:02:08;14.07;;;8.70;;
21162;SDS011;10739;52.198;20.908;2024-03-23T15:04:34;14.93;;;9.52;;
21162;SDS011;10739;52.198;20.908;2024-03-23T15:07:01;14.88;;;10.13;;
21162;SDS011;10739;52.198;20.908;2024-03-23T15:09:28;15.40;;;11.18;;
21162;SDS011;10739;52.198;20.908;2024-03-23T15:11:54;16.30;;;10.85;;
21162;SDS011;10739;52.198;20.908;2024-03-23T15:14:21;16.65;;;11.80;;
21162;SDS011;10739;52.198;20.908;2024-03-23T15:20:30;23.75;;;17.42;;